createdAt,value
2019-05-02T00:00:12.056Z,9.35
2019-05-02T00:01:12.102Z,9.35
2019-05-02T00:02:12.099Z,9.29
2019-05-02T00:03:12.110Z,9.35
2019-05-02T00:04:26.792Z,9.23
2019-05-02T00:05:12.145Z,9.24
2019-05-02T00:06:14.059Z,9.23
2019-05-02T00:07:21.988Z,9.18
2019-05-02T00:08:12.208Z,9.23
2019-05-02T00:09:14.028Z,9.1
2019-05-02T00:10:12.239Z,9.18
2019-05-02T00:11:12.259Z,9.17
2019-05-02T00:13:12.296Z,9.11
2019-05-02T00:14:12.317Z,9.04
2019-05-02T00:15:12.333Z,9.13
2019-05-02T00:16:17.683Z,9.08
2019-05-02T00:17:12.370Z,9.13
2019-05-02T00:18:12.393Z,9.02
2019-05-02T00:19:28.636Z,8.99
2019-05-02T00:20:28.553Z,8.99
2019-05-02T00:21:12.446Z,9.05
2019-05-02T00:22:19.713Z,9.04
2019-05-02T00:24:12.597Z,8.98
2019-05-02T00:25:30.468Z,9.01
2019-05-02T00:26:12.535Z,8.96
2019-05-02T00:27:12.554Z,9.02
2019-05-02T00:28:17.055Z,8.96
2019-05-02T00:30:12.609Z,8.96
2019-05-02T00:31:17.462Z,8.99
2019-05-02T00:32:12.646Z,8.89
2019-05-02T00:33:15.258Z,8.92
2019-05-02T00:34:12.681Z,8.89
2019-05-02T00:35:27.368Z,8.84
2019-05-02T00:36:12.721Z,8.91
2019-05-02T00:37:12.742Z,8.81
2019-05-02T00:39:16.490Z,8.91
2019-05-02T00:40:12.795Z,8.89
2019-05-02T00:41:12.816Z,8.84
2019-05-02T00:42:22.368Z,8.87
2019-05-02T00:43:12.854Z,8.87
2019-05-02T00:44:15.969Z,8.84
2019-05-02T00:45:14.134Z,8.91
2019-05-02T00:47:15.874Z,8.91
2019-05-02T00:48:12.936Z,8.87
2019-05-02T00:49:12.959Z,8.92
2019-05-02T00:50:16.203Z,8.86
2019-05-02T00:51:12.992Z,8.83
2019-05-02T00:52:13.013Z,8.86
2019-05-02T00:53:17.079Z,8.81
2019-05-02T00:54:13.051Z,8.89
2019-05-02T00:55:13.071Z,8.77
2019-05-02T00:56:13.940Z,8.81
2019-05-02T00:57:19.865Z,8.79
2019-05-02T00:58:13.120Z,8.8
2019-05-02T00:59:13.387Z,8.83
2019-05-02T01:00:18.234Z,8.63
2019-05-02T01:01:13.181Z,8.73
2019-05-02T01:02:13.213Z,8.71
2019-05-02T01:03:20.239Z,8.63
2019-05-02T01:04:28.959Z,8.71
2019-05-02T01:05:13.250Z,8.71
2019-05-02T01:06:18.767Z,8.66
2019-05-02T01:07:29.090Z,8.7
2019-05-02T01:08:13.304Z,8.66
2019-05-02T01:09:16.028Z,8.66
2019-05-02T01:10:17.191Z,8.66
2019-05-02T01:11:13.354Z,8.66
2019-05-02T01:12:28.186Z,8.74
2019-05-02T01:13:19.109Z,8.66
2019-05-02T01:14:13.410Z,8.73
2019-05-02T01:15:14.539Z,8.79
2019-05-02T01:16:19.036Z,8.79
2019-05-02T01:17:13.467Z,8.8
2019-05-02T01:18:13.236Z,8.89
2019-05-02T01:19:20.428Z,8.87
2019-05-02T01:20:29.328Z,8.91
2019-05-02T01:21:28.200Z,8.95
2019-05-02T01:22:18.447Z,8.98
2019-05-02T01:23:30.191Z,9.08
2019-05-02T01:24:13.592Z,9.13
2019-05-02T01:26:13.627Z,9.11
2019-05-02T01:27:13.652Z,9.14
2019-05-02T01:28:32.353Z,9.13
2019-05-02T01:29:13.686Z,9.2
2019-05-02T01:30:13.712Z,9.21
2019-05-02T01:31:21.073Z,9.21
2019-05-02T01:32:13.736Z,9.29
2019-05-02T01:33:13.754Z,9.23
2019-05-02T01:34:21.585Z,9.31
2019-05-02T01:35:13.799Z,9.29
2019-05-02T01:36:13.806Z,9.2
2019-05-02T01:37:23.522Z,9.24
2019-05-02T01:38:13.843Z,9.24
2019-05-02T01:39:28.526Z,9.26
2019-05-02T01:40:20.363Z,9.21
2019-05-02T01:41:13.909Z,9.14
2019-05-02T01:42:13.916Z,9.26
2019-05-02T01:43:13.933Z,9.28
2019-05-02T01:44:13.955Z,9.21
2019-05-02T01:45:16.248Z,9.21
2019-05-02T01:46:16.913Z,9.23
2019-05-02T01:47:14.004Z,9.29
2019-05-02T01:49:16.789Z,9.33
2019-05-02T01:50:14.067Z,9.26
2019-05-02T01:51:16.710Z,9.28
2019-05-02T01:52:14.098Z,9.29
2019-05-02T01:53:14.123Z,9.28
2019-05-02T01:54:14.972Z,9.28
2019-05-02T01:55:28.813Z,9.23
2019-05-02T01:56:14.170Z,9.26
2019-05-02T01:58:20.691Z,9.26
2019-05-02T01:59:14.227Z,9.23
2019-05-02T02:00:16.274Z,9.13
2019-05-02T02:01:21.381Z,9.21
2019-05-02T02:02:14.278Z,9.23
2019-05-02T02:03:15.225Z,9.13
2019-05-02T02:04:20.913Z,9.2
2019-05-02T02:05:14.333Z,9.05
2019-05-02T02:07:19.908Z,9.02
2019-05-02T02:08:14.386Z,9.17
2019-05-02T02:09:14.765Z,9.11
2019-05-02T02:10:29.103Z,9.02
2019-05-02T02:11:14.441Z,8.96
2019-05-02T02:12:16.164Z,9.02
2019-05-02T02:13:14.480Z,8.91
2019-05-02T02:14:21.117Z,8.95
2019-05-02T02:15:14.514Z,8.95
2019-05-02T02:16:14.531Z,8.95
2019-05-02T02:17:20.061Z,8.91
2019-05-02T02:18:14.580Z,8.87
2019-05-02T02:19:29.253Z,8.91
2019-05-02T02:20:19.080Z,8.94
2019-05-02T02:22:14.647Z,8.84
2019-05-02T02:23:18.775Z,8.87
2019-05-02T02:24:14.681Z,8.81
2019-05-02T02:25:14.697Z,8.87
2019-05-02T02:26:17.335Z,8.79
2019-05-02T02:27:14.728Z,8.8
2019-05-02T02:28:14.763Z,8.84
2019-05-02T02:29:14.768Z,8.8
2019-05-02T02:30:26.595Z,8.91
2019-05-02T02:31:14.819Z,8.83
2019-05-02T02:32:19.901Z,8.84
2019-05-02T02:33:14.679Z,8.79
2019-05-02T02:34:16.762Z,8.89
2019-05-02T02:35:17.398Z,8.87
2019-05-02T02:36:14.914Z,8.84
2019-05-02T02:37:19.473Z,8.92
2019-05-02T02:38:14.935Z,8.92
2019-05-02T02:39:19.471Z,8.91
2019-05-02T02:40:14.724Z,8.81
2019-05-02T02:41:18.076Z,8.92
2019-05-02T02:42:34.276Z,8.98
2019-05-02T02:43:37.447Z,8.96
2019-05-02T02:44:15.036Z,8.95
2019-05-02T02:47:37.698Z,8.94
2019-05-02T02:48:15.112Z,8.96
2019-05-02T02:49:24.837Z,8.96
2019-05-02T02:50:15.147Z,8.94
2019-05-02T02:51:28.809Z,8.96
2019-05-02T02:52:15.182Z,8.92
2019-05-02T02:53:29.860Z,9.01
2019-05-02T02:54:15.230Z,8.95
2019-05-02T02:55:21.893Z,8.95
2019-05-02T02:56:15.251Z,9.13
2019-05-02T02:57:30.771Z,9.11
2019-05-02T02:58:29.950Z,9.02
2019-05-02T02:59:28.217Z,9.08
2019-05-02T03:00:16.216Z,9.1
2019-05-02T03:01:26.864Z,9.04
2019-05-02T03:02:17.034Z,9.05
2019-05-02T03:03:20.616Z,9.17
2019-05-02T03:04:17.100Z,9.08
2019-05-02T03:05:27.888Z,9.15
2019-05-02T03:06:15.452Z,9.14
2019-05-02T03:07:28.831Z,9.14
2019-05-02T03:08:30.132Z,9.08
2019-05-02T03:09:20.016Z,9.13
2019-05-02T03:10:15.510Z,9.14
2019-05-02T03:11:25.708Z,9.08
2019-05-02T03:12:15.541Z,9.05
2019-05-02T03:13:24.379Z,8.98
2019-05-02T03:14:30.286Z,8.95
2019-05-02T03:15:20.750Z,8.91
2019-05-02T03:16:15.671Z,8.94
2019-05-02T03:17:20.248Z,8.95
2019-05-02T03:18:15.655Z,8.92
2019-05-02T03:19:23.501Z,8.96
2019-05-02T03:20:15.682Z,8.95
2019-05-02T03:21:25.064Z,8.92
2019-05-02T03:22:15.741Z,8.94
2019-05-02T03:23:26.081Z,8.81
2019-05-02T03:24:15.758Z,8.89
2019-05-02T03:25:48.602Z,8.91
2019-05-02T03:26:20.137Z,8.94
2019-05-02T03:27:15.811Z,8.91
2019-05-02T03:28:23.516Z,8.95
2019-05-02T03:29:15.843Z,8.95
2019-05-02T03:30:38.734Z,9.04
2019-05-02T03:31:33.148Z,8.91
2019-05-02T03:32:36.275Z,8.91
2019-05-02T03:34:15.960Z,8.95
2019-05-02T03:35:48.613Z,8.99
2019-05-02T03:36:38.461Z,8.98
2019-05-02T03:37:18.827Z,9.13
2019-05-02T03:38:16.023Z,9.1
2019-05-02T03:39:21.864Z,9.04
2019-05-02T03:40:16.045Z,9.11
2019-05-02T03:41:23.854Z,9.02
2019-05-02T03:42:43.349Z,9.02
2019-05-02T03:43:27.720Z,9.05
2019-05-02T03:44:28.664Z,9.02
2019-05-02T03:45:43.051Z,9.05
2019-05-02T03:46:25.280Z,9.05
2019-05-02T03:48:27.751Z,9.08
2019-05-02T03:49:16.207Z,9.11
2019-05-02T03:50:16.223Z,9.02
2019-05-02T03:51:39.570Z,9.1
2019-05-02T03:52:16.040Z,8.91
2019-05-02T03:53:27.919Z,9.1
2019-05-02T03:54:19.750Z,9.11
2019-05-02T03:55:16.312Z,9.08
2019-05-02T03:56:19.003Z,9.1
2019-05-02T03:57:16.358Z,9.1
2019-05-02T03:58:21.001Z,8.92
2019-05-02T03:59:16.389Z,9.01
2019-05-02T04:00:26.860Z,9.01
2019-05-02T04:01:16.420Z,8.98
2019-05-02T04:02:24.374Z,8.94
2019-05-02T04:03:16.456Z,9.05
2019-05-02T04:04:25.235Z,9.1
2019-05-02T04:05:16.489Z,9.04
2019-05-02T04:06:26.196Z,9.14
2019-05-02T04:07:16.536Z,9.17
2019-05-02T04:08:25.190Z,9.15
2019-05-02T04:09:16.570Z,9.13
2019-05-02T04:10:23.872Z,9.15
2019-05-02T04:11:16.603Z,9.18
2019-05-02T04:12:38.770Z,9.14
2019-05-02T04:13:16.638Z,9.2
2019-05-02T04:14:40.409Z,9.21
2019-05-02T04:15:16.444Z,9.18
2019-05-02T04:16:21.921Z,9.17
2019-05-02T04:17:39.291Z,9.26
2019-05-02T04:18:20.460Z,9.28
2019-05-02T04:19:16.743Z,9.29
2019-05-02T04:20:17.572Z,9.29
2019-05-02T04:21:24.181Z,9.33
2019-05-02T04:22:17.323Z,9.29
2019-05-02T04:23:21.117Z,9.32
2019-05-02T04:24:20.680Z,9.31
2019-05-02T04:25:16.857Z,9.38
2019-05-02T04:26:17.980Z,9.43
2019-05-02T04:27:16.894Z,9.26
2019-05-02T04:28:19.154Z,9.36
2019-05-02T04:29:16.931Z,9.33
2019-05-02T04:30:19.264Z,9.31
2019-05-02T04:31:16.955Z,9.32
2019-05-02T04:32:19.384Z,9.28
2019-05-02T04:33:38.582Z,9.38
2019-05-02T04:34:20.701Z,9.39
2019-05-02T04:35:17.040Z,9.4
2019-05-02T04:36:20.286Z,9.35
2019-05-02T04:37:17.075Z,9.38
2019-05-02T04:39:28.433Z,9.4
2019-05-02T04:40:20.579Z,9.48
2019-05-02T04:42:25.876Z,9.43
2019-05-02T04:43:18.344Z,9.43
2019-05-02T04:44:18.894Z,9.51
2019-05-02T04:45:55.954Z,9.46
2019-05-02T04:46:33.724Z,9.46
2019-05-02T04:47:29.009Z,9.46
2019-05-02T04:48:41.318Z,9.35
2019-05-02T04:49:39.198Z,9.35
2019-05-02T04:50:31.961Z,9.39
2019-05-02T04:51:38.105Z,9.35
2019-05-02T04:52:28.512Z,9.39
2019-05-02T04:53:40.847Z,9.36
2019-05-02T04:54:48.741Z,9.38
2019-05-02T04:55:38.034Z,9.4
2019-05-02T04:56:23.431Z,9.51
2019-05-02T04:57:46.739Z,9.47
2019-05-02T04:58:49.699Z,9.47
2019-05-02T05:00:23.340Z,9.57
2019-05-02T05:01:30.658Z,9.65
2019-05-02T05:02:40.110Z,9.57
2019-05-02T05:03:28.309Z,9.43
2019-05-02T05:04:22.847Z,9.47
2019-05-02T05:05:33.692Z,9.43
2019-05-02T05:06:40.777Z,9.43
2019-05-02T05:08:34.399Z,9.4
2019-05-02T05:09:22.930Z,9.47
2019-05-02T05:10:23.422Z,9.48
2019-05-02T05:11:29.848Z,9.43
2019-05-02T05:12:24.259Z,9.51
2019-05-02T05:13:29.135Z,9.53
2019-05-02T05:14:22.993Z,9.46
2019-05-02T05:15:51.882Z,9.46
2019-05-02T05:16:23.600Z,9.46
2019-05-02T05:18:37.964Z,9.57
2019-05-02T05:19:28.545Z,9.54
2019-05-02T05:20:23.210Z,9.64
2019-05-02T05:21:28.567Z,9.61
2019-05-02T05:22:23.446Z,9.57
2019-05-02T05:23:38.259Z,9.6
2019-05-02T05:24:24.926Z,9.57
2019-05-02T05:25:27.803Z,9.57
2019-05-02T05:26:23.200Z,9.64
2019-05-02T05:27:29.846Z,9.74
2019-05-02T05:28:43.080Z,9.71
2019-05-02T05:29:29.667Z,9.72
2019-05-02T05:30:23.634Z,9.72
2019-05-02T05:31:31.684Z,9.71
2019-05-02T05:33:37.997Z,9.69
2019-05-02T05:34:33.204Z,9.74
2019-05-02T05:35:23.385Z,9.81
2019-05-02T05:36:34.010Z,9.74
2019-05-02T05:37:23.402Z,9.75
2019-05-02T05:38:32.727Z,9.84
2019-05-02T05:39:42.904Z,9.68
2019-05-02T05:40:42.212Z,9.69
2019-05-02T05:42:37.715Z,9.66
2019-05-02T05:43:27.465Z,9.74
2019-05-02T05:44:33.437Z,9.69
2019-05-02T05:45:23.548Z,9.71
2019-05-02T05:46:23.577Z,9.68
2019-05-02T05:47:27.364Z,9.78
2019-05-02T05:48:23.606Z,9.72
2019-05-02T05:49:28.217Z,9.76
2019-05-02T05:50:23.642Z,9.76
2019-05-02T05:51:27.228Z,9.86
2019-05-02T05:52:42.222Z,9.72
2019-05-02T05:53:28.159Z,9.87
2019-05-02T05:54:23.711Z,9.84
2019-05-02T05:55:40.680Z,9.81
2019-05-02T05:56:23.753Z,9.87
2019-05-02T05:57:27.628Z,9.84
2019-05-02T05:58:23.562Z,9.87
2019-05-02T05:59:41.803Z,9.75
2019-05-02T06:00:30.182Z,9.84
2019-05-02T06:01:33.739Z,9.96
2019-05-02T06:02:23.874Z,10.01
2019-05-02T06:03:43.597Z,9.99
2019-05-02T06:04:35.484Z,10.05
2019-05-02T06:05:23.914Z,10.07
2019-05-02T06:06:29.864Z,10.12
2019-05-02T06:07:43.360Z,10.12
2019-05-02T06:09:30.985Z,10.18
2019-05-02T06:10:24.006Z,10.23
2019-05-02T06:11:38.687Z,10.25
2019-05-02T06:12:30.037Z,10.27
2019-05-02T06:14:27.412Z,10.38
2019-05-02T06:15:24.096Z,10.38
2019-05-02T06:16:24.128Z,10.36
2019-05-02T06:17:32.930Z,10.38
2019-05-02T06:18:24.156Z,10.41
2019-05-02T06:19:24.170Z,10.25
2019-05-02T06:20:30.520Z,10.3
2019-05-02T06:21:24.209Z,10.25
2019-05-02T06:22:29.300Z,10.27
2019-05-02T06:23:41.231Z,10.3
2019-05-02T06:24:38.927Z,10.33
2019-05-02T06:25:42.269Z,10.4
2019-05-02T06:26:38.966Z,10.4
2019-05-02T06:27:30.441Z,10.48
2019-05-02T06:28:24.342Z,10.34
2019-05-02T06:29:25.736Z,10.33
2019-05-02T06:30:27.028Z,10.45
2019-05-02T06:31:24.395Z,10.22
2019-05-02T06:32:25.482Z,10.23
2019-05-02T06:33:30.445Z,10.34
2019-05-02T06:34:24.464Z,10.33
2019-05-02T06:35:26.093Z,10.38
2019-05-02T06:36:39.153Z,10.47
2019-05-02T06:37:24.512Z,10.44
2019-05-02T06:38:26.404Z,10.61
2019-05-02T06:39:26.979Z,10.66
2019-05-02T06:40:24.563Z,10.7
2019-05-02T06:41:25.849Z,10.61
2019-05-02T06:42:27.581Z,10.63
2019-05-02T06:43:24.675Z,10.68
2019-05-02T06:44:28.950Z,10.76
2019-05-02T06:45:24.655Z,10.74
2019-05-02T06:46:32.160Z,10.78
2019-05-02T06:47:24.694Z,10.71
2019-05-02T06:48:24.466Z,10.74
2019-05-02T06:49:29.212Z,10.78
2019-05-02T06:50:27.232Z,10.76
2019-05-02T06:51:25.937Z,10.73
2019-05-02T06:52:27.148Z,10.76
2019-05-02T06:53:24.809Z,10.94
2019-05-02T06:54:27.849Z,10.94
2019-05-02T06:55:39.509Z,10.99
2019-05-02T06:56:24.871Z,10.96
2019-05-02T06:57:29.031Z,10.99
2019-05-02T06:58:43.988Z,10.97
2019-05-02T06:59:24.885Z,10.88
2019-05-02T07:00:55.573Z,10.97
2019-05-02T07:02:40.902Z,10.92
2019-05-02T07:03:46.167Z,11.03
2019-05-02T07:04:27.547Z,11.02
2019-05-02T07:05:29.717Z,11.14
2019-05-02T07:06:26.942Z,11.07
2019-05-02T07:07:39.377Z,11.11
2019-05-02T07:09:39.763Z,11.03
2019-05-02T07:10:45.785Z,10.94
2019-05-02T07:11:26.406Z,11.03
2019-05-02T07:12:26.433Z,11.11
2019-05-02T07:13:26.447Z,11.14
2019-05-02T07:14:28.409Z,11.25
2019-05-02T07:15:26.828Z,11.24
2019-05-02T07:16:42.387Z,11.24
2019-05-02T07:17:38.039Z,11.28
2019-05-02T07:18:47.379Z,11.29
2019-05-02T07:19:31.906Z,11.29
2019-05-02T07:20:26.584Z,11.29
2019-05-02T07:21:28.522Z,11.21
2019-05-02T07:22:26.620Z,11.27
2019-05-02T07:23:26.641Z,11.19
2019-05-02T07:24:33.313Z,11.27
2019-05-02T07:25:43.858Z,11.25
2019-05-02T07:26:28.126Z,11.22
2019-05-02T07:27:33.577Z,11.22
2019-05-02T07:28:28.826Z,11.24
2019-05-02T07:29:27.909Z,11.27
2019-05-02T07:30:30.001Z,11.36
2019-05-02T07:31:26.793Z,11.28
2019-05-02T07:32:29.809Z,11.17
2019-05-02T07:33:26.840Z,11.27
2019-05-02T07:34:44.122Z,11.21
2019-05-02T07:35:29.525Z,11.06
2019-05-02T07:36:31.063Z,11
2019-05-02T07:37:26.901Z,11.17
2019-05-02T07:38:30.630Z,11.22
2019-05-02T07:39:26.939Z,11.27
2019-05-02T07:40:26.962Z,11.29
2019-05-02T07:41:31.509Z,11.33
2019-05-02T07:42:27.052Z,11.43
2019-05-02T07:43:27.234Z,11.39
2019-05-02T07:44:32.521Z,11.42
2019-05-02T07:45:27.083Z,11.47
2019-05-02T07:46:27.102Z,11.39
2019-05-02T07:47:28.717Z,11.32
2019-05-02T07:48:27.117Z,11.32
2019-05-02T07:50:46.379Z,11.33
2019-05-02T07:51:27.544Z,11.39
2019-05-02T07:52:33.594Z,11.36
2019-05-02T07:53:27.211Z,11.37
2019-05-02T07:54:44.510Z,11.36
2019-05-02T07:55:27.245Z,11.33
2019-05-02T07:56:27.276Z,11.36
2019-05-02T07:57:33.023Z,11.43
2019-05-02T07:58:27.418Z,11.4
2019-05-02T07:59:42.918Z,11.33
2019-05-02T08:00:42.009Z,11.4
2019-05-02T08:01:44.820Z,11.35
2019-05-02T08:02:30.142Z,11.37
2019-05-02T08:03:35.595Z,11.37
2019-05-02T08:04:27.424Z,11.43
2019-05-02T08:05:28.693Z,11.46
2019-05-02T08:06:46.613Z,11.61
2019-05-02T08:07:36.630Z,11.46
2019-05-02T08:08:32.357Z,11.47
2019-05-02T08:09:27.524Z,11.55
2019-05-02T08:10:28.840Z,11.46
2019-05-02T08:11:27.556Z,11.54
2019-05-02T08:12:27.580Z,11.6
2019-05-02T08:13:27.601Z,11.55
2019-05-02T08:14:34.465Z,11.61
2019-05-02T08:15:29.531Z,11.47
2019-05-02T08:16:32.476Z,11.57
2019-05-02T08:17:27.707Z,11.62
2019-05-02T08:18:32.766Z,11.52
2019-05-02T08:19:43.276Z,11.6
2019-05-02T08:20:27.733Z,11.54
2019-05-02T08:21:42.410Z,11.57
2019-05-02T08:22:27.766Z,11.65
2019-05-02T08:23:31.112Z,11.73
2019-05-02T08:24:27.808Z,11.6
2019-05-02T08:25:27.832Z,11.65
2019-05-02T08:26:28.295Z,11.72
2019-05-02T08:27:42.773Z,11.75
2019-05-02T08:29:33.373Z,11.75
2019-05-02T08:30:27.924Z,11.72
2019-05-02T08:31:30.118Z,11.76
2019-05-02T08:32:27.959Z,11.72
2019-05-02T08:33:36.595Z,11.76
2019-05-02T08:34:28.099Z,11.88
2019-05-02T08:36:28.039Z,11.75
2019-05-02T08:37:28.056Z,11.88
2019-05-02T08:38:28.076Z,11.8
2019-05-02T08:39:35.969Z,11.96
2019-05-02T08:40:28.114Z,11.98
2019-05-02T08:41:28.131Z,11.94
2019-05-02T08:42:35.273Z,11.95
2019-05-02T08:43:28.172Z,11.86
2019-05-02T08:44:28.194Z,11.95
2019-05-02T08:45:28.213Z,11.94
2019-05-02T08:46:28.236Z,12.05
2019-05-02T08:47:32.586Z,12.02
2019-05-02T08:48:28.284Z,12.16
2019-05-02T08:49:28.446Z,12.14
2019-05-02T08:50:34.675Z,12.07
2019-05-02T08:51:28.330Z,12.1
2019-05-02T08:52:44.178Z,12.2
2019-05-02T08:53:43.033Z,12.14
2019-05-02T08:54:35.353Z,12.1
2019-05-02T08:55:29.955Z,12.17
2019-05-02T08:56:28.426Z,12.14
2019-05-02T08:57:34.521Z,12.19
2019-05-02T08:58:28.487Z,12.27
2019-05-02T08:59:29.432Z,12.21
2019-05-02T09:01:54.333Z,12.29
2019-05-02T09:03:28.576Z,12.39
2019-05-02T09:04:43.731Z,12.37
2019-05-02T09:05:28.610Z,12.38
2019-05-02T09:06:28.964Z,12.39
2019-05-02T09:07:31.499Z,12.34
2019-05-02T09:08:28.665Z,12.37
2019-05-02T09:09:43.348Z,12.34
2019-05-02T09:10:28.707Z,12.29
2019-05-02T09:11:28.726Z,12.37
2019-05-02T09:12:28.756Z,12.35
2019-05-02T09:13:35.495Z,12.46
2019-05-02T09:14:28.789Z,12.46
2019-05-02T09:15:28.804Z,12.52
2019-05-02T09:16:35.224Z,12.6
2019-05-02T09:17:44.483Z,12.6
2019-05-02T09:18:50.505Z,12.46
2019-05-02T09:19:36.905Z,12.57
2019-05-02T09:20:28.943Z,12.54
2019-05-02T09:21:36.879Z,12.53
2019-05-02T09:22:28.964Z,12.83
2019-05-02T09:23:37.372Z,12.83
2019-05-02T09:24:28.986Z,12.82
2019-05-02T09:25:45.431Z,12.78
2019-05-02T09:26:42.547Z,12.85
2019-05-02T09:27:29.048Z,12.78
2019-05-02T09:29:29.087Z,12.77
2019-05-02T09:30:32.552Z,12.77
2019-05-02T09:31:45.987Z,12.86
2019-05-02T09:32:32.230Z,12.9
2019-05-02T09:33:29.162Z,12.89
2019-05-02T09:34:31.944Z,12.87
2019-05-02T09:35:29.204Z,12.96
2019-05-02T09:36:29.234Z,12.96
2019-05-02T09:37:29.243Z,13.07
2019-05-02T09:38:29.264Z,13.14
2019-05-02T09:39:37.643Z,13.19
2019-05-02T09:40:29.314Z,13.11
2019-05-02T09:41:44.425Z,13.08
2019-05-02T09:42:29.356Z,13.2
2019-05-02T09:43:34.692Z,13.25
2019-05-02T09:44:29.385Z,13.26
2019-05-02T09:45:40.845Z,13.32
2019-05-02T09:46:29.431Z,13.38
2019-05-02T09:47:53.737Z,13.51
2019-05-02T09:48:31.967Z,13.59
2019-05-02T09:49:29.492Z,13.67
2019-05-02T09:50:38.439Z,13.77
2019-05-02T09:52:32.082Z,13.52
2019-05-02T09:53:32.324Z,13.49
2019-05-02T09:54:29.595Z,13.45
2019-05-02T09:55:31.561Z,13.46
2019-05-02T09:56:45.497Z,13.29
2019-05-02T09:57:29.682Z,13.3
2019-05-02T09:58:31.780Z,13.32
2019-05-02T09:59:35.702Z,13.45
2019-05-02T10:00:37.316Z,13.51
2019-05-02T10:01:31.517Z,13.45
2019-05-02T10:02:30.071Z,13.42
2019-05-02T10:03:31.622Z,13.33
2019-05-02T10:04:29.814Z,13.36
2019-05-02T10:05:29.844Z,13.41
2019-05-02T10:06:32.089Z,13.44
2019-05-02T10:07:29.855Z,13.49
2019-05-02T10:08:31.856Z,13.42
2019-05-02T10:09:32.367Z,13.51
2019-05-02T10:10:32.086Z,13.49
2019-05-02T10:11:32.249Z,13.49
2019-05-02T10:12:31.918Z,13.54
2019-05-02T10:13:31.801Z,13.54
2019-05-02T10:14:30.023Z,13.46
2019-05-02T10:15:30.049Z,13.52
2019-05-02T10:16:34.213Z,13.49
2019-05-02T10:17:32.057Z,13.51
2019-05-02T10:18:35.503Z,13.48
2019-05-02T10:19:32.659Z,13.48
2019-05-02T10:20:39.095Z,13.54
2019-05-02T10:21:31.794Z,13.55
2019-05-02T10:22:43.759Z,13.51
2019-05-02T10:23:32.028Z,13.52
2019-05-02T10:24:32.009Z,13.51
2019-05-02T10:25:44.452Z,13.41
2019-05-02T10:26:32.745Z,13.32
2019-05-02T10:27:32.088Z,13.3
2019-05-02T10:28:53.278Z,13.3
2019-05-02T10:29:35.414Z,13.3
2019-05-02T10:30:32.724Z,13.33
2019-05-02T10:31:38.751Z,13.38
2019-05-02T10:32:32.394Z,13.38
2019-05-02T10:33:38.337Z,13.41
2019-05-02T10:34:30.419Z,13.33
2019-05-02T10:35:43.317Z,13.33
2019-05-02T10:36:32.314Z,13.38
2019-05-02T10:37:39.960Z,13.41
2019-05-02T10:38:32.446Z,13.22
2019-05-02T10:39:38.870Z,13.22
2019-05-02T10:40:32.132Z,13.2
2019-05-02T10:41:41.620Z,13.19
2019-05-02T10:42:32.327Z,13.29
2019-05-02T10:43:32.692Z,13.38
2019-05-02T10:44:45.283Z,13.45
2019-05-02T10:45:32.041Z,13.57
2019-05-02T10:46:38.713Z,13.54
2019-05-02T10:47:32.291Z,13.54
2019-05-02T10:48:35.682Z,13.67
2019-05-02T10:50:32.667Z,13.91
2019-05-02T10:51:31.570Z,13.95
2019-05-02T10:52:36.748Z,14.04
2019-05-02T10:53:32.194Z,14.14
2019-05-02T10:54:38.541Z,14.18
2019-05-02T10:55:45.509Z,14.35
2019-05-02T10:56:32.384Z,14.2
2019-05-02T10:57:45.549Z,14.22
2019-05-02T10:58:38.195Z,14.33
2019-05-02T10:59:32.733Z,14.28
2019-05-02T11:00:47.831Z,14.15
2019-05-02T11:02:32.709Z,14.18
2019-05-02T11:03:31.916Z,14.06
2019-05-02T11:05:31.659Z,13.89
2019-05-02T11:06:32.392Z,14.04
2019-05-02T11:07:32.622Z,14
2019-05-02T11:08:31.860Z,13.95
2019-05-02T11:09:31.879Z,13.77
2019-05-02T11:10:45.824Z,13.64
2019-05-02T11:11:45.844Z,13.73
2019-05-02T11:12:49.536Z,13.89
2019-05-02T11:13:32.229Z,13.88
2019-05-02T11:14:31.877Z,13.85
2019-05-02T11:15:32.567Z,13.77
2019-05-02T11:17:32.304Z,13.64
2019-05-02T11:18:47.236Z,13.64
2019-05-02T11:19:31.791Z,13.7
2019-05-02T11:20:31.853Z,13.59
2019-05-02T11:22:32.100Z,13.75
2019-05-02T11:23:32.805Z,13.71
2019-05-02T11:24:31.644Z,13.78
2019-05-02T11:26:32.373Z,13.64
2019-05-02T11:27:32.846Z,13.73
2019-05-02T11:28:32.345Z,13.63
2019-05-02T11:29:46.215Z,13.54
2019-05-02T11:30:32.032Z,13.59
2019-05-02T11:31:46.259Z,13.57
2019-05-02T11:32:32.656Z,13.63
2019-05-02T11:33:32.519Z,13.57
2019-05-02T11:34:32.639Z,13.6
2019-05-02T11:36:32.911Z,13.67
2019-05-02T11:37:32.808Z,13.92
2019-05-02T11:39:14.852Z,13.89
2019-05-02T11:40:05.763Z,13.97
2019-05-02T11:42:49.365Z,14.17
2019-05-02T11:43:49.760Z,14.2
2019-05-02T11:45:04.071Z,14.22
2019-05-02T11:45:54.057Z,14.22
2019-05-02T11:46:52.133Z,14.17
2019-05-02T11:47:49.470Z,14.2
2019-05-02T11:49:02.330Z,14.28
2019-05-02T11:49:56.891Z,14.14
2019-05-02T11:50:49.532Z,14.09
2019-05-02T11:51:57.739Z,14.06
2019-05-02T11:52:49.572Z,14.04
2019-05-02T11:53:49.598Z,14.06
2019-05-02T11:54:54.567Z,14.1
2019-05-02T11:55:49.661Z,14.1
2019-05-02T11:56:56.071Z,14.1
2019-05-02T11:57:49.684Z,14.15
2019-05-02T11:59:49.724Z,14.18
2019-05-02T12:00:54.848Z,14.47
2019-05-02T12:02:04.611Z,14.43
2019-05-02T12:02:59.031Z,14.46
2019-05-02T12:04:07.512Z,14.62
2019-05-02T12:04:56.864Z,14.61
2019-05-02T12:05:49.844Z,14.81
2019-05-02T12:07:00.869Z,14.75
2019-05-02T12:07:49.886Z,14.77
2019-05-02T12:08:55.177Z,14.73
2019-05-02T12:10:02.707Z,14.73
2019-05-02T12:10:51.858Z,14.73
2019-05-02T12:11:57.852Z,14.6
2019-05-02T12:12:49.995Z,14.57
2019-05-02T12:13:57.019Z,14.65
2019-05-02T12:14:50.047Z,14.61
2019-05-02T12:16:04.723Z,14.64
2019-05-02T12:16:50.183Z,14.7
2019-05-02T12:17:51.633Z,14.92
2019-05-02T12:18:50.128Z,14.94
2019-05-02T12:20:04.812Z,14.78
2019-05-02T12:20:51.941Z,14.8
2019-05-02T12:21:50.213Z,14.92
2019-05-02T12:22:50.246Z,14.96
2019-05-02T12:23:51.941Z,14.99
2019-05-02T12:24:51.857Z,15.1
2019-05-02T12:25:51.961Z,15.21
2019-05-02T12:26:52.794Z,15.25
2019-05-02T12:27:50.315Z,15.28
2019-05-02T12:28:52.366Z,15.14
2019-05-02T12:30:03.243Z,15.06
2019-05-02T12:30:51.869Z,15.09
2019-05-02T12:31:57.360Z,15.07
2019-05-02T12:32:50.426Z,15.07
2019-05-02T12:33:51.601Z,15.03
2019-05-02T12:34:52.423Z,14.91
2019-05-02T12:36:05.222Z,14.62
2019-05-02T12:36:52.271Z,14.84
2019-05-02T12:37:56.115Z,14.75
2019-05-02T12:38:52.573Z,14.89
2019-05-02T12:39:51.691Z,14.95
2019-05-02T12:40:52.000Z,14.91
2019-05-02T12:41:53.569Z,14.89
2019-05-02T12:43:52.401Z,15.01
2019-05-02T12:44:50.685Z,14.88
2019-05-02T12:45:52.226Z,14.96
2019-05-02T12:46:51.748Z,14.91
2019-05-02T12:48:05.409Z,15.06
2019-05-02T12:48:51.899Z,14.91
2019-05-02T12:49:51.876Z,14.91
2019-05-02T12:51:05.471Z,14.89
2019-05-02T12:52:05.500Z,14.94
2019-05-02T12:52:52.121Z,14.94
2019-05-02T12:53:52.774Z,14.99
2019-05-02T12:54:52.497Z,14.99
2019-05-02T12:55:52.682Z,14.89
2019-05-02T12:56:52.781Z,14.73
2019-05-02T12:57:52.304Z,14.75
2019-05-02T12:58:52.658Z,14.86
2019-05-02T12:59:52.436Z,15.03
2019-05-02T13:00:53.016Z,14.92
2019-05-02T13:02:05.712Z,14.94
2019-05-02T13:02:52.492Z,15.06
2019-05-02T13:03:51.769Z,15.1
2019-05-02T13:04:52.688Z,15.2
2019-05-02T13:05:52.090Z,15.29
2019-05-02T13:07:05.817Z,15.29
2019-05-02T13:07:57.842Z,15.27
2019-05-02T13:08:52.357Z,15.17
2019-05-02T13:09:52.677Z,15.25
2019-05-02T13:10:53.910Z,15.29
2019-05-02T13:11:52.261Z,15.16
2019-05-02T13:12:52.990Z,15.06
2019-05-02T13:13:53.301Z,15.06
2019-05-02T13:14:52.875Z,15.1
2019-05-02T13:16:06.078Z,15.32
2019-05-02T13:17:05.650Z,15.32
2019-05-02T13:17:54.627Z,15.36
2019-05-02T13:18:51.875Z,15.41
2019-05-02T13:20:06.057Z,15.49
2019-05-02T13:20:52.756Z,15.47
2019-05-02T13:22:09.693Z,15.34
2019-05-02T13:22:52.624Z,15.29
2019-05-02T13:23:51.782Z,15.27
2019-05-02T13:24:58.748Z,15.25
2019-05-02T13:25:51.834Z,15.29
2019-05-02T13:27:01.748Z,15.36
2019-05-02T13:28:51.796Z,15.53
2019-05-02T13:30:06.319Z,15.5
2019-05-02T13:30:51.776Z,15.6
2019-05-02T13:31:52.332Z,15.71
2019-05-02T13:32:58.970Z,15.84
2019-05-02T13:33:52.324Z,15.69
2019-05-02T13:34:58.453Z,15.69
2019-05-02T13:35:51.989Z,15.84
2019-05-02T13:36:52.040Z,15.64
2019-05-02T13:37:51.931Z,15.57
2019-05-02T13:39:06.513Z,15.53
2019-05-02T13:39:53.005Z,15.51
2019-05-02T13:42:06.601Z,15.25
2019-05-02T13:42:52.333Z,15.28
2019-05-02T13:43:52.439Z,15.29
2019-05-02T13:44:52.662Z,15.31
2019-05-02T13:45:52.634Z,15.23
2019-05-02T13:46:53.546Z,14.96
2019-05-02T13:47:54.289Z,15.01
2019-05-02T13:50:04.003Z,14.83
2019-05-02T13:50:54.205Z,14.98
2019-05-02T13:51:54.460Z,14.96